Time;durP1;ratioP1;P1;durP2;ratioP2;P2;SDS_P1;SDS_P2;PMS_P1;PMS_P2;Temp;Humidity;BMP_temperature;BMP_pressure;BME280_temperature;BME280_humidity;BME280_pressure;Samples;Min_cycle;Max_cycle;Signal;HPM_P1;HPM_P2
2021/12/29 00:00:26;;;;;;;0.50;0.50;;;;;;;6.89;83.54;95673.34;29395;212;63005;-66
2021/12/29 00:01:01;;;;;;;0.60;0.60;;;;;;;6.87;83.51;95675.53;29394;241;64009;-65
2021/12/29 00:01:54;;;;;;;0.60;0.60;;;;;;;6.88;83.58;95674.44;29395;251;63018;-63
2021/12/29 00:02:35;;;;;;;0.52;0.52;;;;;;;6.96;82.72;95676.44;29395;208;63009;-55
2021/12/29 00:03:08;;;;;;;0.60;0.60;;;;;;;6.96;82.74;95671.03;29395;219;63004;-65
2021/12/29 00:03:45;;;;;;;0.60;0.60;;;;;;;6.98;82.24;95679.63;29395;280;63009;-63
2021/12/29 00:04:27;;;;;;;0.60;0.60;;;;;;;6.96;82.70;95671.03;29394;209;64004;-63
2021/12/29 00:05:21;;;;;;;0.50;0.50;;;;;;;6.92;82.75;95670.06;29395;212;63009;-64
2021/12/29 00:05:55;;;;;;;0.60;0.60;;;;;;;6.92;82.81;95691.62;29395;200;63000;-70
2021/12/29 00:06:28;;;;;;;0.60;0.60;;;;;;;6.96;82.67;95681.81;29395;202;63008;-69
2021/12/29 00:07:00;;;;;;;0.60;0.60;;;;;;;6.95;83.09;95674.81;29395;199;63004;-63
2021/12/29 00:07:32;;;;;;;0.60;0.60;;;;;;;6.89;82.96;95681.44;29395;221;63009;-65
2021/12/29 00:08:06;;;;;;;0.60;0.60;;;;;;;6.92;82.99;95684.34;29395;302;63005;-63
2021/12/29 00:08:42;;;;;;;0.60;0.60;;;;;;;6.87;83.28;95684.44;29395;286;63009;-63
2021/12/29 00:09:16;;;;;;;0.50;0.50;;;;;;;6.85;83.38;95683.12;29394;199;64005;-54
2021/12/29 00:09:49;;;;;;;0.60;0.60;;;;;;;6.97;82.61;95684.22;29395;204;63013;-58
2021/12/29 00:10:21;;;;;;;0.60;0.60;;;;;;;7.03;82.35;95691.12;29395;370;63005;-67
2021/12/29 00:10:55;;;;;;;0.60;0.60;;;;;;;7.06;82.24;95689.72;29394;254;64009;-69
2021/12/29 00:11:38;;;;;;;0.50;0.50;;;;;;;7.06;82.03;95687.03;29395;202;63004;-64
2021/12/29 00:12:11;;;;;;;0.60;0.60;;;;;;;7.04;82.50;95694.63;29394;226;64009;-69
2021/12/29 00:12:48;;;;;;;0.60;0.60;;;;;;;7.10;81.75;95692.63;29395;202;63004;-59
2021/12/29 00:13:26;;;;;;;0.50;0.50;;;;;;;7.10;81.71;95698.81;29394;207;64008;-63
2021/12/29 00:14:01;;;;;;;0.50;0.50;;;;;;;7.02;82.28;95692.22;29395;210;63005;-63
2021/12/29 00:14:45;;;;;;;0.60;0.60;;;;;;;6.97;82.44;95697.69;29395;247;63009;-64
2021/12/29 00:15:19;;;;;;;0.60;0.60;;;;;;;6.91;82.87;95684.63;29395;227;63005;-64
2021/12/29 00:15:57;;;;;;;0.50;0.50;;;;;;;6.89;83.24;95700.31;29395;197;63009;-65
2021/12/29 00:16:33;;;;;;;0.60;0.60;;;;;;;6.92;83.33;95703.22;29395;285;63005;-67
2021/12/29 00:17:05;;;;;;;0.60;0.60;;;;;;;6.90;82.94;95691.12;29395;302;63009;-63
2021/12/29 00:17:39;;;;;;;0.60;0.60;;;;;;;6.90;83.23;95696.53;29395;209;63005;-68
2021/12/29 00:18:10;;;;;;;0.60;0.60;;;;;;;6.93;83.22;95694.00;29395;362;63009;-66
2021/12/29 00:18:41;;;;;;;0.60;0.60;;;;;;;6.96;82.86;95698.00;29394;244;64004;-65
2021/12/29 00:19:12;;;;;;;0.60;0.60;;;;;;;6.92;82.66;95691.62;29395;267;63009;-67
2021/12/29 00:19:44;;;;;;;0.60;0.60;;;;;;;6.98;82.36;95698.50;29395;206;63004;-67
2021/12/29 00:20:18;;;;;;;0.57;0.57;;;;;;;7.02;82.14;95696.81;29395;212;63012;-63
2021/12/29 00:20:50;;;;;;;0.60;0.60;;;;;;;7.02;82.51;95699.50;29395;202;63004;-63
2021/12/29 00:21:22;;;;;;;0.60;0.60;;;;;;;6.98;82.77;95701.19;29395;285;63008;-67
2021/12/29 00:21:53;;;;;;;0.60;0.60;;;;;;;7.02;82.49;95715.69;29395;214;63005;-66
2021/12/29 00:22:25;;;;;;;0.60;0.60;;;;;;;7.05;82.06;95720.50;29395;225;63009;-56
2021/12/29 00:22:57;;;;;;;0.60;0.60;;;;;;;7.02;82.12;95710.28;29395;207;63010;-64
2021/12/29 00:23:29;;;;;;;0.60;0.60;;;;;;;7.04;82.14;95716.19;29395;216;63009;-63
2021/12/29 00:24:03;;;;;;;0.60;0.60;;;;;;;6.99;82.16;95718.97;29394;218;64005;-64
2021/12/29 00:24:34;;;;;;;0.60;0.60;;;;;;;6.97;82.48;95715.78;29395;205;63009;-64
2021/12/29 00:25:09;;;;;;;0.50;0.50;;;;;;;6.93;82.90;95714.81;29395;227;63005;-63
2021/12/29 00:25:45;;;;;;;0.60;0.60;;;;;;;6.89;83.09;95713.78;29395;213;63009;-62
2021/12/29 00:26:19;;;;;;;0.60;0.60;;;;;;;6.86;83.39;95715.19;29395;197;63009;-63
2021/12/29 00:26:53;;;;;;;0.60;0.60;;;;;;;6.84;83.14;95712.00;29395;246;63009;-64
2021/12/29 00:27:24;;;;;;;0.60;0.60;;;;;;;6.83;83.45;95712.28;29395;212;63004;-56
2021/12/29 00:28:01;;;;;;;0.60;0.60;;;;;;;6.80;83.54;95720.97;29395;234;63009;-65
2021/12/29 00:28:32;;;;;;;0.60;0.60;;;;;;;6.81;83.78;95717.19;29395;255;63004;-62
2021/12/29 00:29:15;;;;;;;0.50;0.50;;;;;;;6.78;84.05;95717.75;29394;250;64009;-64
2021/12/29 00:29:49;;;;;;;0.60;0.60;;;;;;;6.84;83.82;95711.19;29417;215;63005;-64
2021/12/29 00:30:27;;;;;;;0.60;0.60;;;;;;;6.84;83.51;95720.06;29395;208;63009;-69
2021/12/29 00:31:01;;;;;;;0.60;0.60;;;;;;;6.88;83.49;95718.37;29395;204;63005;-63
2021/12/29 00:31:33;;;;;;;0.50;0.50;;;;;;;6.85;83.58;95712.78;29395;226;63009;-62
2021/12/29 00:32:06;;;;;;;0.60;0.60;;;;;;;6.85;83.73;95713.59;29395;338;63016;-64
2021/12/29 00:32:40;;;;;;;0.60;0.60;;;;;;;6.85;83.48;95710.91;29395;222;63009;-63
2021/12/29 00:33:12;;;;;;;0.50;0.50;;;;;;;6.83;83.69;95721.19;29395;198;63005;-63
2021/12/29 00:33:44;;;;;;;0.60;0.60;;;;;;;6.83;83.55;95726.56;29395;226;63009;-63
2021/12/29 00:34:15;;;;;;;0.60;0.60;;;;;;;6.87;83.76;95726.78;29394;211;64004;-70
2021/12/29 00:34:47;;;;;;;0.60;0.60;;;;;;;6.92;83.23;95724.00;29395;252;63009;-65
2021/12/29 00:35:29;;;;;;;0.60;0.60;;;;;;;6.98;82.76;95730.88;29395;225;63004;-62
2021/12/29 00:36:01;;;;;;;0.50;0.50;;;;;;;6.99;83.02;95713.59;29395;245;63008;-64
2021/12/29 00:36:32;;;;;;;0.60;0.60;;;;;;;6.97;83.20;95731.97;29395;236;63004;-64
2021/12/29 00:37:03;;;;;;;0.50;0.50;;;;;;;6.98;82.83;95722.78;29395;215;63009;-63
2021/12/29 00:37:42;;;;;;;0.60;0.60;;;;;;;7.01;82.79;95722.19;29395;206;63005;-64
2021/12/29 00:38:14;;;;;;;0.60;0.60;;;;;;;7.02;82.73;95715.69;29395;211;63009;-60
2021/12/29 00:38:46;;;;;;;0.50;0.50;;;;;;;6.99;83.03;95735.16;29394;211;64005;-63
2021/12/29 00:39:17;;;;;;;0.60;0.60;;;;;;;6.97;83.12;95727.38;29394;233;64009;-63
2021/12/29 00:39:49;;;;;;;0.50;0.50;;;;;;;6.97;83.17;95726.56;29394;197;64005;-63
2021/12/29 00:40:22;;;;;;;0.55;0.55;;;;;;;6.96;83.19;95735.75;29395;214;63009;-54
2021/12/29 00:41:03;;;;;;;0.60;0.60;;;;;;;6.97;83.62;95738.16;29395;278;63004;-71
2021/12/29 00:41:37;;;;;;;0.60;0.60;;;;;;;6.95;82.97;95736.84;29395;286;63009;-63
2021/12/29 00:42:09;;;;;;;0.50;0.50;;;;;;;6.92;83.42;95740.97;29395;215;63004;-64
2021/12/29 00:42:45;;;;;;;0.50;0.50;;;;;;;6.93;83.42;95742.53;29395;331;63009;-63
2021/12/29 00:43:16;;;;;;;0.60;0.60;;;;;;;6.92;83.28;95740.97;29395;260;63004;-65
2021/12/29 00:43:47;;;;;;;0.60;0.60;;;;;;;7.02;82.74;95740.75;29395;210;63008;-59
2021/12/29 00:44:21;;;;;;;0.50;0.50;;;;;;;7.02;82.64;95745.34;29394;271;64005;-64
2021/12/29 00:44:54;;;;;;;0.60;0.60;;;;;;;7.00;83.17;95736.75;29394;288;64009;-65
2021/12/29 00:45:32;;;;;;;0.50;0.50;;;;;;;7.00;82.97;95742.16;29395;352;63005;-63
2021/12/29 00:46:06;;;;;;;0.60;0.60;;;;;;;6.97;83.40;95748.16;29395;218;63009;-55
2021/12/29 00:47:00;;;;;;;0.60;0.60;;;;;;;6.94;83.70;95746.03;29395;224;63005;-63
2021/12/29 00:47:56;;;;;;;0.52;0.52;;;;;;;6.97;83.27;95754.34;29395;288;63009;-64
2021/12/29 00:48:36;;;;;;;0.60;0.60;;;;;;;6.99;83.19;95756.75;29395;220;63004;-72
2021/12/29 00:49:08;;;;;;;0.57;0.57;;;;;;;6.99;83.26;95756.75;29417;238;63009;-65
2021/12/29 00:49:50;;;;;;;0.55;0.55;;;;;;;7.04;82.91;95759.34;29394;222;64004;-69
2021/12/29 00:50:22;;;;;;;0.60;0.60;;;;;;;7.00;83.28;95756.44;29416;210;64009;-63
2021/12/29 00:50:53;;;;;;;0.60;0.60;;;;;;;6.97;83.48;95756.22;29373;196;63004;-62
2021/12/29 00:51:25;;;;;;;0.50;0.50;;;;;;;6.93;83.29;95763.34;29395;208;63011;-64
2021/12/29 00:52:04;;;;;;;0.60;0.60;;;;;;;6.89;83.52;95762.34;29394;360;64005;-65
2021/12/29 00:52:45;;;;;;;0.50;0.50;;;;;;;6.94;83.39;95757.63;29395;209;63009;-63
2021/12/29 00:53:16;;;;;;;;;;;;;;;6.95;83.66;95766.50;29996;982;6000;-69
2021/12/29 00:53:48;;;;;;;0.60;0.60;;;;;;;6.98;83.34;95765.94;29422;210;63000;-66
2021/12/29 00:54:20;;;;;;;0.60;0.60;;;;;;;7.01;83.58;95765.34;29395;285;63005;-63
2021/12/29 00:54:56;;;;;;;0.50;0.50;;;;;;;6.95;83.97;95766.50;29395;254;63000;-66
2021/12/29 00:55:36;;;;;;;0.60;0.60;;;;;;;6.89;83.99;95768.53;29394;254;64009;-63
2021/12/29 00:56:13;;;;;;;0.50;0.50;;;;;;;6.82;84.41;95764.59;29395;262;63004;-64
2021/12/29 00:56:51;;;;;;;0.52;0.52;;;;;;;6.88;84.40;95766.13;29395;326;63009;-62
2021/12/29 00:57:23;;;;;;;0.50;0.50;;;;;;;6.92;83.89;95777.94;29395;232;63004;-64
2021/12/29 00:58:07;;;;;;;0.60;0.60;;;;;;;6.90;84.05;95763.94;29395;202;63009;-63
2021/12/29 00:58:41;;;;;;;0.57;0.57;;;;;;;6.84;84.92;95775.91;29394;197;64004;-65
2021/12/29 00:59:15;;;;;;;0.60;0.60;;;;;;;6.85;84.21;95766.72;29395;215;63008;-65
2021/12/29 00:59:52;;;;;;;0.50;0.50;;;;;;;6.89;83.91;95767.72;29395;209;63005;-68
2021/12/29 01:00:28;;;;;;;0.50;0.50;;;;;;;6.90;84.14;95766.62;29395;227;63009;-64
2021/12/29 01:01:06;;;;;;;0.60;0.60;;;;;;;6.90;84.18;95775.53;29417;200;63000;-63
2021/12/29 01:01:40;;;;;;;0.50;0.50;;;;;;;6.86;84.40;95769.13;29395;223;63009;-63
2021/12/29 01:02:12;;;;;;;0.60;0.60;;;;;;;6.89;84.68;95773.13;29395;221;63005;-64
2021/12/29 01:02:48;;;;;;;0.50;0.50;;;;;;;6.90;84.61;95766.62;29395;202;63009;-64
2021/12/29 01:03:21;;;;;;;0.50;0.50;;;;;;;6.88;84.36;95771.53;29395;214;63005;-67
2021/12/29 01:04:02;;;;;;;0.60;0.60;;;;;;;6.90;84.20;95769.31;29394;256;64009;-64
2021/12/29 01:04:39;;;;;;;0.50;0.50;;;;;;;6.90;84.29;95770.13;29395;214;63010;-62
2021/12/29 01:05:12;;;;;;;0.60;0.60;;;;;;;6.87;84.55;95775.31;29395;261;63009;-68
2021/12/29 01:05:43;;;;;;;0.50;0.50;;;;;;;6.88;84.25;95776.91;29395;240;63004;-63
2021/12/29 01:06:15;;;;;;;0.60;0.60;;;;;;;6.84;84.76;95778.59;29395;343;63008;-64
2021/12/29 01:06:49;;;;;;;0.60;0.60;;;;;;;6.80;84.62;95781.09;29395;224;63005;-63
2021/12/29 01:07:21;;;;;;;0.50;0.50;;;;;;;6.78;84.91;95782.47;29394;248;64009;-63
2021/12/29 01:07:52;;;;;;;0.50;0.50;;;;;;;6.80;85.29;95780.28;29395;211;63005;-66
2021/12/29 01:08:32;;;;;;;0.50;0.50;;;;;;;6.87;84.55;95775.31;29395;199;63009;-56
2021/12/29 01:09:04;;;;;;;0.50;0.50;;;;;;;6.85;84.63;95790.97;29394;247;64005;-64
2021/12/29 01:09:38;;;;;;;0.50;0.50;;;;;;;6.88;84.63;95777.72;29395;225;63013;-71
2021/12/29 01:10:11;;;;;;;0.60;0.60;;;;;;;6.89;84.54;95783.91;29395;270;63004;-62
2021/12/29 01:10:43;;;;;;;0.60;0.60;;;;;;;6.88;84.87;95779.59;29395;209;63009;-63
2021/12/29 01:11:15;;;;;;;0.50;0.50;;;;;;;6.85;85.08;95791.78;29395;205;63004;-63
2021/12/29 01:11:47;;;;;;;0.60;0.60;;;;;;;6.87;84.66;95791.50;29395;226;63009;-63
2021/12/29 01:12:18;;;;;;;0.50;0.50;;;;;;;6.93;84.84;95782.22;29395;214;63004;-62
2021/12/29 01:12:56;;;;;;;0.50;0.50;;;;;;;6.88;84.52;95795.78;29395;202;63008;-63
2021/12/29 01:13:31;;;;;;;0.60;0.60;;;;;;;6.87;84.77;95791.50;29395;206;63004;-57
2021/12/29 01:14:05;;;;;;;0.60;0.60;;;;;;;6.91;84.39;95797.91;29394;201;64008;-59
2021/12/29 01:14:41;;;;;;;0.50;0.50;;;;;;;6.97;84.39;95796.69;29395;291;63005;-61
2021/12/29 01:15:16;;;;;;;0.50;0.50;;;;;;;6.93;84.48;95807.25;29395;205;63009;-71
2021/12/29 01:15:58;;;;;;;0.60;0.60;;;;;;;6.93;84.22;95795.69;29395;271;63005;-62
2021/12/29 01:17:19;;;;;;;0.60;0.60;;;;;;;6.83;84.67;95803.97;29395;221;63005;-66
2021/12/29 01:17:50;;;;;;;0.57;0.57;;;;;;;6.84;84.64;95802.88;29394;267;64009;-62
2021/12/29 01:18:22;;;;;;;0.60;0.60;;;;;;;6.81;85.27;95808.84;29395;218;63004;-62
2021/12/29 01:18:54;;;;;;;0.50;0.50;;;;;;;6.79;85.69;95813.72;29395;219;63009;-63
2021/12/29 01:19:28;;;;;;;0.50;0.50;;;;;;;6.76;85.40;95815.13;29395;237;63004;-56
2021/12/29 01:20:00;;;;;;;0.50;0.50;;;;;;;6.72;85.82;95806.81;29394;208;64009;-68
2021/12/29 01:20:33;;;;;;;0.50;0.50;;;;;;;6.79;85.49;95816.44;29395;249;63004;-63
2021/12/29 01:21:05;;;;;;;0.50;0.50;;;;;;;6.82;85.33;95815.84;29395;214;63009;-66
2021/12/29 01:21:39;;;;;;;0.60;0.60;;;;;;;6.89;84.87;95822.47;29395;221;63005;-70
2021/12/29 01:22:10;;;;;;;0.50;0.50;;;;;;;6.92;84.82;95821.06;29395;210;63009;-64
2021/12/29 01:22:41;;;;;;;0.50;0.50;;;;;;;6.94;84.76;95821.53;29395;220;63005;-69
2021/12/29 01:23:13;;;;;;;0.50;0.50;;;;;;;6.95;84.60;95820.44;29394;228;64009;-67
2021/12/29 01:23:44;;;;;;;0.50;0.50;;;;;;;6.96;84.70;95822.06;29395;241;63005;-71
2021/12/29 01:24:17;;;;;;;0.50;0.50;;;;;;;7.00;84.40;95823.87;29395;204;63009;-64
2021/12/29 01:24:49;;;;;;;0.50;0.50;;;;;;;6.97;84.70;95829.03;29395;295;63005;-62
2021/12/29 01:25:21;;;;;;;0.50;0.50;;;;;;;6.98;84.70;95827.94;29394;308;64009;-63
2021/12/29 01:25:53;;;;;;;0.50;0.50;;;;;;;6.97;84.80;95831.75;29395;248;63004;-61
2021/12/29 01:26:25;;;;;;;0.60;0.60;;;;;;;6.95;84.71;95842.03;29395;210;63014;-61
2021/12/29 01:26:57;;;;;;;0.50;0.50;;;;;;;6.92;84.84;95829.16;29395;212;63004;-64
2021/12/29 01:27:28;;;;;;;0.50;0.50;;;;;;;6.89;85.15;95837.84;29395;225;63009;-64
2021/12/29 01:28:00;;;;;;;0.50;0.50;;;;;;;6.90;84.98;95839.44;29395;249;63004;-62
2021/12/29 01:28:31;;;;;;;0.50;0.50;;;;;;;6.89;85.22;95837.84;29395;372;63008;-66
2021/12/29 01:29:04;;;;;;;0.60;0.60;;;;;;;6.91;85.61;95841.03;29394;203;64005;-62
2021/12/29 01:29:35;;;;;;;0.50;0.50;;;;;;;6.94;84.83;95840.44;29395;225;63009;-68
2021/12/29 01:30:10;;;;;;;0.50;0.50;;;;;;;6.94;85.16;95840.44;29395;208;63011;-67
2021/12/29 01:30:42;;;;;;;0.50;0.50;;;;;;;6.92;85.17;95845.34;29395;225;63018;-63
2021/12/29 01:31:14;;;;;;;0.50;0.50;;;;;;;6.88;85.42;95841.63;29395;196;63005;-62
2021/12/29 01:31:47;;;;;;;0.60;0.60;;;;;;;6.92;84.91;95831.84;29394;225;64009;-64
2021/12/29 01:32:18;;;;;;;0.60;0.60;;;;;;;6.87;84.75;95837.31;29395;331;63005;-55
2021/12/29 01:32:49;;;;;;;0.50;0.50;;;;;;;6.84;85.07;95840.59;29395;376;63017;-63
2021/12/29 01:33:21;;;;;;;0.60;0.60;;;;;;;6.79;85.55;95848.78;29395;263;63004;-62
2021/12/29 01:33:52;;;;;;;0.60;0.60;;;;;;;6.80;85.69;95845.00;29394;236;64009;-62
2021/12/29 01:34:24;;;;;;;0.50;0.50;;;;;;;6.79;85.77;95846.87;29394;199;64004;-63
2021/12/29 01:34:58;;;;;;;0.50;0.50;;;;;;;6.78;85.46;95839.09;29394;221;64009;-68
2021/12/29 01:35:29;;;;;;;0.50;0.50;;;;;;;6.81;85.22;95843.88;29395;264;63004;-63
2021/12/29 01:36:00;;;;;;;0.50;0.50;;;;;;;6.77;85.40;95850.97;29395;240;63008;-63
2021/12/29 01:36:33;;;;;;;0.50;0.50;;;;;;;6.73;85.77;95850.75;29395;291;63005;-64
2021/12/29 01:37:05;;;;;;;0.50;0.50;;;;;;;6.70;86.07;95849.44;29395;209;63009;-57
2021/12/29 01:37:37;;;;;;;0.60;0.60;;;;;;;6.72;85.78;95839.16;29394;305;64005;-63
2021/12/29 01:38:09;;;;;;;0.60;0.60;;;;;;;6.69;85.74;95844.34;29395;204;63017;-63
2021/12/29 01:38:41;;;;;;;0.50;0.50;;;;;;;6.71;85.75;95852.94;29395;203;63018;-63
2021/12/29 01:39:15;;;;;;;0.60;0.60;;;;;;;6.69;85.93;95842.44;29395;204;63009;-63
2021/12/29 01:39:46;;;;;;;0.60;0.60;;;;;;;6.75;85.93;95853.16;29394;216;64005;-69
2021/12/29 01:40:18;;;;;;;0.60;0.60;;;;;;;6.84;85.25;95848.69;29394;224;64009;-63
2021/12/29 01:40:50;;;;;;;0.60;0.60;;;;;;;6.82;85.51;95838.22;29395;209;63004;-69
2021/12/29 01:41:21;;;;;;;0.50;0.50;;;;;;;6.84;84.90;95837.91;29395;285;63015;-71
2021/12/29 01:41:55;;;;;;;0.57;0.57;;;;;;;6.87;85.11;95848.13;29395;205;63004;-68
2021/12/29 01:42:27;;;;;;;0.60;0.60;;;;;;;6.91;84.57;95838.34;29395;261;63009;-64
2021/12/29 01:43:05;;;;;;;0.60;0.60;;;;;;;6.88;84.97;95841.63;29395;243;63004;-64
2021/12/29 01:43:36;;;;;;;0.50;0.50;;;;;;;6.87;84.68;95840.03;29395;253;63008;-65
2021/12/29 01:44:10;;;;;;;0.60;0.60;;;;;;;6.84;85.10;95840.59;29395;223;63005;-63
2021/12/29 01:44:41;;;;;;;0.50;0.50;;;;;;;6.82;85.13;95850.88;29394;222;64009;-66
2021/12/29 01:45:13;;;;;;;0.52;0.52;;;;;;;6.82;85.29;95849.00;29395;207;63005;-64
2021/12/29 01:45:46;;;;;;;0.50;0.50;;;;;;;6.81;85.51;95843.88;29395;268;63009;-64
2021/12/29 01:46:17;;;;;;;0.50;0.50;;;;;;;6.82;85.23;95849.00;29395;238;63005;-55
2021/12/29 01:46:49;;;;;;;0.50;0.50;;;;;;;6.82;84.98;95846.28;29395;239;63009;-63
2021/12/29 01:47:28;;;;;;;0.60;0.60;;;;;;;6.84;84.99;95846.00;29394;227;64005;-63
2021/12/29 01:48:02;;;;;;;0.60;0.60;;;;;;;6.84;84.78;95843.31;29417;235;63009;-64
2021/12/29 01:48:34;;;;;;;0.60;0.60;;;;;;;6.84;84.79;95848.69;29395;196;63004;-64
2021/12/29 01:49:06;;;;;;;0.50;0.50;;;;;;;6.87;84.81;95851.62;29395;261;63009;-62
2021/12/29 01:49:40;;;;;;;0.50;0.50;;;;;;;6.87;84.99;95861.59;29395;291;63004;-63
2021/12/29 01:50:13;;;;;;;0.50;0.50;;;;;;;6.85;85.13;95861.87;29395;252;63014;-62
2021/12/29 01:50:49;;;;;;;0.50;0.50;;;;;;;6.84;85.06;95856.78;29395;243;63004;-63
2021/12/29 01:51:21;;;;;;;0.50;0.50;;;;;;;6.87;85.23;95861.59;29395;213;63009;-64
2021/12/29 01:52:02;;;;;;;0.50;0.50;;;;;;;6.94;84.55;95867.38;29395;281;63005;-61
2021/12/29 01:52:39;;;;;;;0.60;0.60;;;;;;;6.90;84.57;95859.12;29394;269;64009;-62
2021/12/29 01:53:12;;;;;;;0.50;0.50;;;;;;;6.92;84.58;95864.22;29395;207;63005;-61
2021/12/29 01:54:03;;;;;;;0.50;0.50;;;;;;;6.91;84.69;95873.41;29395;203;63013;-63
2021/12/29 01:54:37;;;;;;;0.50;0.50;;;;;;;6.92;84.47;95875.00;29395;198;63005;-63
2021/12/29 01:55:12;;;;;;;0.50;0.50;;;;;;;6.94;84.45;95864.69;29395;331;63014;-62
2021/12/29 01:55:43;;;;;;;0.50;0.50;;;;;;;6.91;84.23;95874.19;29395;205;63004;-62
2021/12/29 01:56:15;;;;;;;0.50;0.50;;;;;;;6.87;84.67;95877.78;29395;198;63022;-63
2021/12/29 01:56:47;;;;;;;0.50;0.50;;;;;;;6.82;85.34;95877.84;29395;230;63004;-64
2021/12/29 01:57:19;;;;;;;0.50;0.50;;;;;;;6.78;85.08;95874.12;29395;247;63009;-57
2021/12/29 01:57:52;;;;;;;0.60;0.60;;;;;;;6.76;85.45;95884.41;29394;203;64004;-64
2021/12/29 01:58:25;;;;;;;0.50;0.50;;;;;;;6.78;85.60;95883.03;29395;211;63013;-61
2021/12/29 01:58:57;;;;;;;0.50;0.50;;;;;;;6.88;85.11;95882.06;29395;199;63009;-61
2021/12/29 01:59:28;;;;;;;0.60;0.60;;;;;;;6.99;84.14;95881.59;29395;338;63009;-67
2021/12/29 02:00:00;;;;;;;0.50;0.50;;;;;;;7.09;83.86;95877.94;29395;220;63005;-66
2021/12/29 02:00:35;;;;;;;0.50;0.50;;;;;;;7.04;83.48;95889.62;29395;211;63009;-64
2021/12/29 02:01:06;;;;;;;0.50;0.50;;;;;;;7.01;83.62;95889.41;29395;261;63005;-56
2021/12/29 02:01:38;;;;;;;0.50;0.50;;;;;;;7.02;83.96;95891.00;29395;205;63009;-65
2021/12/29 02:02:14;;;;;;;0.50;0.50;;;;;;;7.02;83.66;95893.69;29395;204;63005;-64
2021/12/29 02:02:46;;;;;;;0.50;0.50;;;;;;;7.01;84.11;95889.41;29394;215;64009;-62
2021/12/29 02:03:17;;;;;;;0.50;0.50;;;;;;;6.97;84.20;95889.19;29395;217;63004;-63
2021/12/29 02:03:50;;;;;;;0.50;0.50;;;;;;;6.96;84.69;95892.16;29395;204;63009;-63
2021/12/29 02:04:24;;;;;;;0.50;0.50;;;;;;;6.92;84.44;95896.56;29395;198;63008;-63
2021/12/29 02:04:56;;;;;;;0.60;0.60;;;;;;;6.88;84.96;95898.25;29394;196;64009;-63
2021/12/29 02:05:27;;;;;;;0.50;0.50;;;;;;;6.85;85.15;95896.94;29395;220;63004;-61
2021/12/29 02:05:59;;;;;;;0.50;0.50;;;;;;;6.82;85.22;95894.03;29394;218;64008;-63
2021/12/29 02:06:30;;;;;;;0.50;0.50;;;;;;;6.80;85.07;95896.22;29395;221;63005;-63
2021/12/29 02:07:01;;;;;;;0.50;0.50;;;;;;;6.79;85.48;95900.00;29395;307;63018;-63
2021/12/29 02:07:32;;;;;;;0.50;0.50;;;;;;;6.76;85.42;95892.50;29395;261;63005;-62
2021/12/29 02:08:05;;;;;;;0.50;0.50;;;;;;;6.76;85.79;95892.50;29394;221;64009;-64
2021/12/29 02:08:36;;;;;;;0.50;0.50;;;;;;;6.80;85.66;95904.31;29395;291;63005;-62
2021/12/29 02:09:08;;;;;;;0.50;0.50;;;;;;;6.80;85.88;95898.91;29395;284;63009;-62
2021/12/29 02:09:40;;;;;;;0.50;0.50;;;;;;;6.81;85.62;95900.50;29395;220;63005;-63
2021/12/29 02:10:14;;;;;;;0.50;0.50;;;;;;;6.81;85.75;95897.81;29395;199;63009;-58
2021/12/29 02:10:46;;;;;;;0.60;0.60;;;;;;;6.82;85.46;95902.91;29395;211;63004;-70
2021/12/29 02:11:25;;;;;;;0.50;0.50;;;;;;;6.92;84.79;95908.16;29395;202;63009;-68
2021/12/29 02:11:56;;;;;;;0.60;0.60;;;;;;;6.97;84.80;95904.56;29395;210;63004;-64
2021/12/29 02:12:27;;;;;;;0.50;0.50;;;;;;;7.01;84.37;95902.88;29394;217;64009;-64
2021/12/29 02:13:00;;;;;;;0.50;0.50;;;;;;;7.04;84.10;95905.00;29395;212;63004;-63
2021/12/29 02:13:31;;;;;;;0.50;0.50;;;;;;;7.09;83.90;95915.72;29395;209;63008;-64
2021/12/29 02:14:05;;;;;;;0.50;0.50;;;;;;;7.06;84.01;95900.09;29395;217;63005;-64
2021/12/29 02:14:37;;;;;;;0.60;0.60;;;;;;;6.99;84.40;95902.38;29395;285;63009;-62
2021/12/29 02:15:10;;;;;;;0.50;0.50;;;;;;;6.92;84.30;95902.78;29395;204;63005;-63
2021/12/29 02:15:42;;;;;;;0.50;0.50;;;;;;;6.90;84.74;95909.56;29395;257;63009;-63
2021/12/29 02:16:13;;;;;;;0.50;0.50;;;;;;;6.92;85.04;95907.37;29394;220;64005;-65
2021/12/29 02:16:48;;;;;;;0.50;0.50;;;;;;;6.93;84.82;95908.97;29395;321;63009;-63
2021/12/29 02:17:19;;;;;;;0.50;0.50;;;;;;;6.93;84.73;95909.75;29395;196;63004;-63
2021/12/29 02:17:52;;;;;;;0.50;0.50;;;;;;;6.92;84.45;95901.97;29394;222;64009;-64
2021/12/29 02:18:25;;;;;;;0.50;0.50;;;;;;;6.90;84.81;95909.56;29394;225;64004;-64
2021/12/29 02:19:04;;;;;;;0.50;0.50;;;;;;;6.88;84.97;95912.53;29395;225;63009;-64
2021/12/29 02:19:42;;;;;;;0.50;0.50;;;;;;;6.95;84.73;95912.16;29395;332;63004;-61
2021/12/29 02:20:14;;;;;;;0.50;0.50;;;;;;;7.00;83.76;95903.97;29394;292;64008;-62
2021/12/29 02:20:50;;;;;;;0.50;0.50;;;;;;;6.98;83.82;95904.28;29395;322;63008;-64
2021/12/29 02:21:27;;;;;;;0.50;0.50;;;;;;;7.01;83.65;95906.38;29395;371;63008;-62
2021/12/29 02:22:13;;;;;;;0.50;0.50;;;;;;;7.04;83.69;95910.38;29395;298;63005;-59
2021/12/29 02:22:51;;;;;;;0.50;0.50;;;;;;;7.01;83.74;95900.19;29395;372;63009;-65
2021/12/29 02:23:46;;;;;;;0.50;0.50;;;;;;;7.01;83.70;95905.59;29395;214;63005;-67
2021/12/29 02:24:19;;;;;;;0.60;0.60;;;;;;;7.01;83.71;95908.28;29394;202;64009;-57
2021/12/29 02:25:05;;;;;;;0.50;0.50;;;;;;;7.04;83.47;95913.09;29395;202;63004;-56
2021/12/29 02:25:48;;;;;;;0.50;0.50;;;;;;;7.03;83.71;95912.28;29395;203;63009;-58
2021/12/29 02:26:21;;;;;;;0.50;0.50;;;;;;;7.10;83.37;95911.91;29395;202;63004;-69
2021/12/29 02:26:52;;;;;;;0.60;0.60;;;;;;;7.11;82.63;95910.81;29395;249;63009;-64
2021/12/29 02:27:24;;;;;;;0.50;0.50;;;;;;;7.10;82.96;95919.22;29395;204;63004;-58
2021/12/29 02:27:55;;;;;;;0.50;0.50;;;;;;;7.04;83.05;95915.78;29395;260;63008;-66
2021/12/29 02:28:31;;;;;;;0.50;0.50;;;;;;;7.00;83.50;95915.56;29395;310;63005;-65
2021/12/29 02:29:09;;;;;;;0.60;0.60;;;;;;;7.00;83.61;95920.97;29394;207;64009;-66
2021/12/29 02:29:42;;;;;;;0.52;0.52;;;;;;;7.06;82.91;95924.38;29394;321;64005;-65
2021/12/29 02:30:16;;;;;;;0.50;0.50;;;;;;;7.01;83.46;95921.75;29395;248;63014;-67
2021/12/29 02:30:48;;;;;;;0.50;0.50;;;;;;;6.97;83.46;95920.75;29395;253;63005;-65
2021/12/29 02:31:19;;;;;;;0.50;0.50;;;;;;;6.96;83.39;95921.84;29395;330;63009;-65
2021/12/29 02:31:50;;;;;;;0.60;0.60;;;;;;;6.99;83.44;95927.44;29395;199;63005;-62
2021/12/29 02:32:26;;;;;;;0.50;0.50;;;;;;;7.00;83.13;95926.34;29395;262;63019;-59
2021/12/29 02:33:02;;;;;;;0.50;0.50;;;;;;;7.05;83.10;95933.56;29394;215;64004;-64
2021/12/29 02:33:35;;;;;;;0.50;0.50;;;;;;;7.02;82.95;95918.78;29395;225;63009;-64
2021/12/29 02:34:09;;;;;;;0.50;0.50;;;;;;;7.05;82.78;95922.78;29395;207;63004;-64
2021/12/29 02:34:42;;;;;;;0.50;0.50;;;;;;;7.10;82.69;95930.78;29395;203;63009;-66
2021/12/29 02:35:15;;;;;;;0.50;0.50;;;;;;;7.09;82.37;95929.19;29395;215;63009;-64
2021/12/29 02:35:47;;;;;;;0.50;0.50;;;;;;;7.06;82.61;95929.78;29395;208;63009;-62
2021/12/29 02:36:19;;;;;;;0.60;0.60;;;;;;;7.04;82.66;95938.16;29394;213;64017;-66
2021/12/29 02:36:51;;;;;;;0.50;0.50;;;;;;;7.02;82.64;95923.37;29394;209;64009;-62
2021/12/29 02:37:22;;;;;;;0.50;0.50;;;;;;;7.07;82.33;95936.78;29395;210;63005;-64
2021/12/29 02:37:58;;;;;;;0.50;0.50;;;;;;;7.02;82.64;95944.94;29395;243;63009;-63
2021/12/29 02:38:34;;;;;;;0.60;0.60;;;;;;;7.04;82.48;95942.75;29395;226;63005;-70
2021/12/29 02:39:05;;;;;;;0.60;0.60;;;;;;;7.07;82.26;95937.56;29395;214;63009;-62
2021/12/29 02:39:38;;;;;;;0.52;0.52;;;;;;;7.07;82.41;95936.78;29395;209;63005;-68
2021/12/29 02:40:11;;;;;;;0.60;0.60;;;;;;;7.10;82.04;95938.87;29395;208;63009;-54
2021/12/29 02:40:42;;;;;;;0.50;0.50;;;;;;;7.12;82.05;95939.41;29395;205;63004;-61
2021/12/29 02:41:14;;;;;;;0.50;0.50;;;;;;;7.15;81.73;95930.72;29394;202;64009;-64
2021/12/29 02:41:53;;;;;;;0.60;0.60;;;;;;;7.11;81.53;95932.41;29395;231;63004;-63
2021/12/29 02:42:28;;;;;;;0.50;0.50;;;;;;;7.08;82.00;95938.37;29395;202;63008;-66
2021/12/29 02:43:00;;;;;;;0.50;0.50;;;;;;;7.09;81.74;95941.88;29395;212;63004;-68
2021/12/29 02:43:36;;;;;;;0.50;0.50;;;;;;;7.09;82.15;95940.00;29395;214;63009;-64
2021/12/29 02:44:10;;;;;;;0.50;0.50;;;;;;;7.07;81.89;95937.56;29395;254;63005;-66
2021/12/29 02:44:42;;;;;;;0.50;0.50;;;;;;;7.09;82.05;95939.19;29395;227;63009;-67
2021/12/29 02:45:18;;;;;;;0.50;0.50;;;;;;;7.14;81.78;95948.00;29395;266;63012;-63
2021/12/29 02:45:58;;;;;;;0.60;0.60;;;;;;;7.20;81.10;95952.22;29395;295;63009;-64